Time;durP1;ratioP1;P1;durP2;ratioP2;P2;SDS_P1;SDS_P2;PMS_P1;PMS_P2;Temp;Humidity;BMP_temperature;BMP_pressure;BME280_temperature;BME280_humidity;BME280_pressure;Samples;Min_cycle;Max_cycle;Signal;HPM_P1;HPM_P2
2022/08/04 00:00:26;;;;;;;3.90;3.47;;;;;;;23.61;98.05;99893.91;5120940;27;20195;-76
2022/08/04 00:03:13;;;;;;;3.60;3.30;;;;;;;23.56;97.66;99888.09;5110344;27;20188;-77
2022/08/04 00:05:46;;;;;;;5.47;3.80;;;;;;;23.50;97.60;99891.16;5097912;27;20185;-76
2022/08/04 00:08:21;;;;;;;5.33;3.67;;;;;;;23.46;97.26;99887.88;5116275;27;20185;-76
2022/08/04 00:10:53;;;;;;;4.70;3.40;;;;;;;23.43;97.14;99883.66;5107872;28;20204;-75
2022/08/04 00:13:24;;;;;;;4.03;3.63;;;;;;;23.42;98.59;99870.56;5104335;27;20658;-77
2022/08/04 00:15:57;;;;;;;4.40;3.80;;;;;;;23.38;98.44;99882.28;5112056;27;20916;-76
2022/08/04 00:18:28;;;;;;;4.10;3.80;;;;;;;23.33;98.75;99877.34;5103082;27;20279;-76
2022/08/04 00:20:59;;;;;;;5.23;3.57;;;;;;;23.32;99.03;99874.78;5104529;27;20215;-77
2022/08/04 00:23:26;;;;;;;4.30;3.50;;;;;;;23.28;99.73;99874.16;5113121;27;20271;-76
2022/08/04 00:25:52;;;;;;;4.60;3.60;;;;;;;23.24;99.91;99873.53;5098325;27;20264;-76
2022/08/04 00:28:18;;;;;;;4.13;3.80;;;;;;;23.22;100.00;99874.56;5106938;27;20194;-76
2022/08/04 00:30:44;;;;;;;5.70;3.83;;;;;;;23.18;100.00;99883.63;5119082;27;20316;-76
2022/08/04 00:33:09;;;;;;;4.33;3.70;;;;;;;23.08;100.00;99878.97;5110643;27;20203;-76
2022/08/04 00:35:37;;;;;;;6.13;3.43;;;;;;;23.01;99.98;99883.00;5115357;27;20213;-75
2022/08/04 00:38:03;;;;;;;3.87;3.47;;;;;;;22.94;100.00;99882.56;5102808;27;20196;-77
2022/08/04 00:41:03;;;;;;;4.40;4.00;;;;;;;22.89;100.00;99883.81;5101247;28;20271;-78
2022/08/04 00:43:34;;;;;;;3.83;3.53;;;;;;;22.85;99.91;99888.44;5106725;27;20233;-79
2022/08/04 00:45:59;;;;;;;3.70;3.50;;;;;;;22.81;100.00;99882.53;5101753;27;20177;-77
2022/08/04 00:48:37;;;;;;;4.23;3.87;;;;;;;22.80;100.00;99885.28;5107106;27;20208;-76
2022/08/04 00:51:05;;;;;;;3.73;3.43;;;;;;;22.77;100.00;99882.84;5118592;27;20215;-77
2022/08/04 00:53:48;;;;;;;4.33;3.87;;;;;;;22.73;100.00;99891.91;5117122;27;20207;-76
2022/08/04 00:56:31;;;;;;;4.17;3.87;;;;;;;22.66;100.00;99891.47;5099704;28;20236;-76
2022/08/04 00:59:02;;;;;;;4.90;3.57;;;;;;;22.63;100.00;99896.94;5106992;27;20180;-76
2022/08/04 01:01:58;;;;;;;4.37;4.00;;;;;;;22.59;100.00;99896.28;5105268;27;20288;-77
2022/08/04 01:04:44;;;;;;;4.00;3.70;;;;;;;22.52;100.00;99901.13;5093447;27;20193;-76
2022/08/04 01:07:34;;;;;;;6.53;4.17;;;;;;;22.49;100.00;99903.13;5117306;27;20191;-77
2022/08/04 01:10:15;;;;;;;7.53;4.10;;;;;;;22.45;100.00;99901.63;5105439;27;20604;-77
2022/08/04 01:12:51;;;;;;;4.57;3.43;;;;;;;22.38;100.00;99907.28;5104739;27;20210;-77
2022/08/04 01:15:38;;;;;;;4.07;3.63;;;;;;;22.33;100.00;99909.34;5105436;28;20207;-77
2022/08/04 01:18:05;;;;;;;8.20;4.17;;;;;;;22.28;100.00;99905.34;5098375;28;20197;-76
2022/08/04 01:21:04;;;;;;;7.77;3.80;;;;;;;22.23;100.00;99906.47;5113515;27;20192;-76
2022/08/04 01:23:32;;;;;;;3.63;3.30;;;;;;;22.20;100.00;99903.19;5105558;27;20237;-76
2022/08/04 01:26:35;;;;;;;4.17;3.70;;;;;;;22.18;100.00;99905.91;5109084;27;20192;-78
2022/08/04 01:29:08;;;;;;;6.40;4.00;;;;;;;22.18;100.00;99902.44;5106803;27;20204;-78
2022/08/04 01:31:45;;;;;;;4.77;4.20;;;;;;;22.20;100.00;99901.38;5098119;28;20208;-79
2022/08/04 01:34:12;;;;;;;8.63;4.03;;;;;;;22.24;100.00;99896.75;5111072;28;20250;-76
2022/08/04 01:36:44;;;;;;;6.80;4.47;;;;;;;22.27;100.00;99890.47;5113226;28;20180;-76
2022/08/04 01:41:56;;;;;;;8.60;4.13;;;;;;;22.31;100.00;99887.53;5112070;28;20283;-79
2022/08/04 01:44:23;;;;;;;6.87;4.57;;;;;;;22.31;100.00;99890.16;5098930;27;20180;-79
2022/08/04 01:46:51;;;;;;;4.90;4.20;;;;;;;22.30;100.00;99896.38;5112087;28;20231;-77
2022/08/04 01:49:20;;;;;;;4.97;4.03;;;;;;;22.26;100.00;99902.78;5113357;27;20635;-76
2022/08/04 01:51:49;;;;;;;3.90;3.60;;;;;;;22.21;100.00;99894.34;5105844;28;20211;-76
2022/08/04 01:54:16;;;;;;;3.87;3.53;;;;;;;22.16;100.00;99894.59;5114656;28;20655;-76
2022/08/04 01:56:44;;;;;;;3.97;3.57;;;;;;;22.10;100.00;99897.66;5107492;28;20761;-78
2022/08/04 01:59:14;;;;;;;3.70;3.40;;;;;;;22.07;100.00;99900.47;5109897;28;20200;-76
2022/08/04 02:01:39;;;;;;;3.73;3.27;;;;;;;22.02;100.00;99897.28;5096178;28;20200;-75
2022/08/04 02:04:04;;;;;;;3.20;2.90;;;;;;;21.98;100.00;99898.44;5104724;28;20222;-76
2022/08/04 02:06:52;;;;;;;3.03;2.83;;;;;;;21.94;100.00;99892.50;5107930;28;20183;-77
2022/08/04 02:09:46;;;;;;;3.47;3.17;;;;;;;21.91;100.00;99890.06;5105905;27;20188;-78
2022/08/04 02:12:17;;;;;;;3.17;2.60;;;;;;;21.88;100.00;99899.00;5124894;28;20189;-79
2022/08/04 02:15:27;;;;;;;3.50;2.97;;;;;;;21.86;100.00;99902.66;5101983;28;20196;-78
2022/08/04 02:18:23;;;;;;;3.30;3.00;;;;;;;21.85;100.00;99899.22;5091360;27;20723;-77
2022/08/04 02:20:56;;;;;;;3.50;3.20;;;;;;;21.86;100.00;99889.50;5107101;27;20269;-77
2022/08/04 02:23:38;;;;;;;3.17;2.87;;;;;;;21.84;100.00;99891.38;5097687;27;20185;-77
2022/08/04 02:26:09;;;;;;;3.20;3.00;;;;;;;21.78;100.00;99895.25;5109094;27;20216;-77
2022/08/04 02:28:39;;;;;;;3.33;3.13;;;;;;;21.76;100.00;99884.81;5120472;27;20627;-77
2022/08/04 02:31:07;;;;;;;3.40;3.20;;;;;;;21.75;100.00;99885.75;5103819;27;20218;-76
2022/08/04 02:33:37;;;;;;;3.37;3.17;;;;;;;21.72;100.00;99885.09;5113045;27;20184;-76
2022/08/04 02:36:05;;;;;;;3.63;3.33;;;;;;;21.70;100.00;99882.56;5101635;28;20181;-76
2022/08/04 02:39:00;;;;;;;3.50;3.30;;;;;;;21.69;100.00;99878.22;5104543;28;20202;-78
2022/08/04 02:41:27;;;;;;;3.57;3.37;;;;;;;21.68;100.00;99889.69;5099362;27;20249;-78
2022/08/04 02:44:01;;;;;;;3.47;3.27;;;;;;;21.67;100.00;99885.38;5127869;27;20187;-78
2022/08/04 02:46:28;;;;;;;3.57;3.27;;;;;;;21.66;100.00;99896.84;5112648;27;20183;-77
2022/08/04 02:48:54;;;;;;;3.50;3.20;;;;;;;21.62;100.00;99885.66;5104400;28;20181;-76
2022/08/04 02:51:39;;;;;;;4.43;3.67;;;;;;;21.56;100.00;99886.00;5121115;27;20547;-76
2022/08/04 02:54:06;;;;;;;3.40;3.10;;;;;;;21.52;100.00;99881.88;5108204;27;20237;-77
2022/08/04 02:56:33;;;;;;;3.83;3.53;;;;;;;21.51;100.00;99889.84;5117850;27;20175;-76
2022/08/04 02:59:04;;;;;;;3.50;3.20;;;;;;;21.50;100.00;99885.53;5101400;27;20177;-77
2022/08/04 03:01:30;;;;;;;3.60;3.30;;;;;;;21.48;100.00;99886.47;5116188;27;20192;-76
2022/08/04 03:04:17;;;;;;;3.53;3.23;;;;;;;21.48;100.00;99889.09;5117673;27;20198;-76
2022/08/04 03:07:11;;;;;;;3.47;3.27;;;;;;;21.44;100.00;99895.53;5115525;27;20188;-75
2022/08/04 03:09:45;;;;;;;4.07;3.77;;;;;;;21.40;100.00;99891.38;5119466;27;20179;-78
2022/08/04 03:12:29;;;;;;;3.87;3.57;;;;;;;21.36;100.00;99889.84;5114351;27;20203;-76
2022/08/04 03:14:58;;;;;;;4.13;3.67;;;;;;;21.29;100.00;99889.38;5105465;27;20193;-77
2022/08/04 03:17:23;;;;;;;3.80;3.50;;;;;;;21.25;100.00;99901.03;5110110;27;20270;-76
2022/08/04 03:20:07;;;;;;;4.03;3.73;;;;;;;21.23;100.00;99891.53;5103147;27;20267;-75
2022/08/04 03:23:02;;;;;;;4.47;4.00;;;;;;;21.20;100.00;99891.72;5122574;27;20168;-77
2022/08/04 03:25:48;;;;;;;4.03;3.63;;;;;;;21.17;100.00;99896.25;5101963;27;20203;-77
2022/08/04 03:28:42;;;;;;;4.20;3.80;;;;;;;21.16;100.00;99909.47;5115760;27;20297;-75
2022/08/04 03:31:28;;;;;;;4.40;3.90;;;;;;;21.14;100.00;99898.19;5114556;27;20653;-77
2022/08/04 03:34:05;;;;;;;4.43;3.60;;;;;;;21.11;100.00;99901.00;5100443;28;20234;-76
2022/08/04 03:37:02;;;;;;;3.87;3.53;;;;;;;21.07;100.00;99902.97;5109581;27;20179;-76
2022/08/04 03:39:57;;;;;;;4.70;3.97;;;;;;;21.06;100.00;99898.66;5100490;28;20192;-79
2022/08/04 03:42:55;;;;;;;4.50;3.50;;;;;;;21.06;100.00;99905.72;5115970;27;20274;-78
2022/08/04 03:45:55;;;;;;;4.00;3.70;;;;;;;21.08;100.00;99893.31;5102377;27;20238;-77
2022/08/04 03:48:49;;;;;;;4.83;3.63;;;;;;;21.06;100.00;99906.53;5098775;27;20192;-79
2022/08/04 03:54:35;;;;;;;4.40;3.90;;;;;;;21.02;100.00;99905.88;5103226;27;20198;-77
2022/08/04 03:57:38;;;;;;;6.17;4.07;;;;;;;20.98;100.00;99908.78;5106887;28;20179;-76
2022/08/04 04:00:38;;;;;;;4.27;3.87;;;;;;;20.92;100.00;99906.50;5092270;28;20189;-77
2022/08/04 04:03:37;;;;;;;6.33;3.77;;;;;;;20.84;100.00;99913.06;5105895;27;20201;-77
2022/08/04 04:06:40;;;;;;;5.00;4.50;;;;;;;20.79;100.00;99914.28;5112042;27;20187;-76
2022/08/04 04:09:30;;;;;;;6.30;4.40;;;;;;;20.75;100.00;99910.94;5105295;27;20250;-76
2022/08/04 04:12:14;;;;;;;7.87;4.77;;;;;;;20.73;100.00;99914.59;5105954;27;20698;-76
2022/08/04 04:15:11;;;;;;;7.77;4.90;;;;;;;20.71;100.00;99919.94;5105662;28;20270;-77
2022/08/04 04:18:15;;;;;;;7.90;4.73;;;;;;;20.73;100.00;99914.59;5105206;27;20262;-75
2022/08/04 04:20:56;;;;;;;7.23;4.63;;;;;;;20.76;100.00;99924.97;5099856;28;20205;-77
2022/08/04 04:23:24;;;;;;;7.90;4.80;;;;;;;;;;5110568;27;20179;-75
2022/08/04 04:25:58;;;;;;;6.30;5.20;;;;;;;20.87;100.00;99930.44;5097666;28;20184;-78
2022/08/04 04:28:23;;;;;;;6.50;4.87;;;;;;;21.04;100.00;99932.09;5107626;27;20191;-77
2022/08/04 04:30:52;;;;;;;10.03;5.17;;;;;;;21.45;100.00;99918.28;5103574;27;20219;-76
2022/08/04 04:33:50;;;;;;;7.83;4.67;;;;;;;22.07;100.00;99924.19;5107341;27;20591;-76
2022/08/04 04:37:03;;;;;;;9.23;4.97;;;;;;;22.77;100.00;99923.25;5105162;27;20194;-77
2022/08/04 04:39:59;;;;;;;10.03;4.73;;;;;;;23.18;100.00;99929.34;5096039;27;20284;-79
2022/08/04 04:42:40;;;;;;;8.20;5.10;;;;;;;23.04;100.00;99924.16;5109201;27;20202;-79
2022/08/04 04:45:29;;;;;;;6.73;4.60;;;;;;;22.82;100.00;99925.59;5121898;27;20271;-76
2022/08/04 04:48:18;;;;;;;5.27;4.73;;;;;;;22.64;100.00;99930.28;5107036;27;20176;-76
2022/08/04 04:50:46;;;;;;;8.10;4.60;;;;;;;22.52;100.00;99937.22;5102422;27;20203;-77
2022/08/04 04:53:28;;;;;;;9.23;4.40;;;;;;;22.43;100.00;99933.38;5093535;27;20676;-76
2022/08/04 04:56:27;;;;;;;7.70;4.57;;;;;;;22.36;100.00;99938.16;5104376;27;20275;-76
2022/08/04 04:58:55;;;;;;;7.40;4.67;;;;;;;22.31;100.00;99942.03;5097000;28;20188;-77
2022/08/04 05:01:54;;;;;;;10.50;4.80;;;;;;;22.37;100.00;99941.63;5110510;27;20650;-78
2022/08/04 05:04:36;;;;;;;7.97;4.40;;;;;;;22.45;100.00;99941.19;5093130;28;20268;-77
2022/08/04 05:07:16;;;;;;;6.63;4.80;;;;;;;22.56;100.00;99945.75;5097651;28;20196;-76
2022/08/04 05:10:01;;;;;;;8.60;4.10;;;;;;;22.61;100.00;99938.41;5097978;28;20172;-77
2022/08/04 05:12:36;;;;;;;4.80;4.33;;;;;;;22.75;100.00;99935.72;5118251;27;20202;-79
2022/08/04 05:15:06;;;;;;;5.00;3.87;;;;;;;22.81;100.00;99937.94;5102586;27;20901;-79
2022/08/04 05:17:40;;;;;;;4.40;4.00;;;;;;;22.92;100.00;99942.50;5101323;27;20217;-77
2022/08/04 05:20:15;;;;;;;3.80;3.13;;;;;;;22.97;99.57;99943.06;5097954;27;20644;-76
2022/08/04 05:22:51;;;;;;;4.87;3.47;;;;;;;23.07;98.98;99947.69;5106034;27;20188;-77
2022/08/04 05:25:27;;;;;;;3.43;3.20;;;;;;;23.20;98.25;99951.25;5098350;27;21093;-77
2022/08/04 05:27:59;;;;;;;3.13;2.83;;;;;;;23.90;95.70;99949.13;5089518;28;20192;-78
2022/08/04 05:30:27;;;;;;;2.83;2.63;;;;;;;24.91;92.04;99958.66;5111156;28;20211;-78
2022/08/04 05:33:02;;;;;;;2.90;2.70;;;;;;;26.12;87.71;99951.28;5113797;27;20342;-78
2022/08/04 05:35:40;;;;;;;4.00;3.23;;;;;;;27.53;82.84;99955.69;5104616;28;20195;-79
2022/08/04 05:38:08;;;;;;;3.10;2.80;;;;;;;28.88;79.94;99954.56;5109743;28;20180;-79
2022/08/04 05:40:36;;;;;;;2.70;2.50;;;;;;;30.01;77.23;99946.72;5103118;28;20239;-76
2022/08/04 05:43:01;;;;;;;3.33;2.63;;;;;;;30.94;75.10;99950.13;5105747;28;20226;-78
2022/08/04 05:45:27;;;;;;;2.97;2.77;;;;;;;31.70;73.53;99954.00;5112869;28;20570;-77
2022/08/04 05:47:54;;;;;;;3.00;2.80;;;;;;;32.44;71.21;99955.28;5125755;27;20186;-78
2022/08/04 05:50:20;;;;;;;4.47;3.23;;;;;;;32.95;69.17;99950.66;5117901;27;20208;-78
2022/08/04 05:52:46;;;;;;;5.97;3.40;;;;;;;33.51;68.00;99952.59;5110186;28;20195;-77
2022/08/04 05:55:12;;;;;;;3.30;3.00;;;;;;;34.05;67.18;99959.09;5101622;27;21086;-78
2022/08/04 05:57:40;;;;;;;4.85;3.13;;;;;;;34.42;66.31;99952.22;5134329;27;20301;-78
2022/08/04 06:00:06;;;;;;;4.15;2.97;;;;;;;34.84;65.49;99960.81;5118225;27;20194;-78
2022/08/04 06:02:34;;;;;;;4.47;2.65;;;;;;;35.34;64.96;99957.66;5107571;28;20187;-80
2022/08/04 06:05:01;;;;;;;2.88;2.67;;;;;;;35.82;63.97;99962.72;5105301;28;20185;-80
2022/08/04 06:07:27;;;;;;;2.72;2.53;;;;;;;36.12;63.03;99955.44;5108269;28;20192;-77
2022/08/04 06:09:53;;;;;;;3.00;2.70;;;;;;;36.23;61.97;99962.19;5100344;28;20225;-77
2022/08/04 06:12:35;;;;;;;3.17;2.88;;;;;;;36.09;61.81;99960.38;5110436;27;20774;-77
2022/08/04 06:15:01;;;;;;;3.25;2.72;;;;;;;36.32;61.07;99960.22;5109542;27;20188;-78
2022/08/04 06:17:34;;;;;;;2.40;2.30;;;;;;;36.73;60.45;99956.91;5098624;27;20181;-77
2022/08/04 06:20:01;;;;;;;3.00;2.67;;;;;;;36.99;59.45;99960.84;5113971;27;20195;-77
2022/08/04 06:22:29;;;;;;;3.35;2.72;;;;;;;37.21;58.76;99958.13;5116842;27;20296;-77
2022/08/04 06:24:56;;;;;;;2.85;2.60;;;;;;;37.39;57.64;99968.41;5107527;27;20227;-76
2022/08/04 06:27:23;;;;;;;3.10;2.90;;;;;;;37.53;57.59;99961.25;5106035;28;20189;-76
2022/08/04 06:29:49;;;;;;;4.07;2.70;;;;;;;37.60;57.21;99964.81;5106116;27;20223;-77
2022/08/04 06:32:26;;;;;;;3.40;3.10;;;;;;;37.73;56.36;99960.53;5116587;27;20201;-77
2022/08/04 06:35:00;;;;;;;3.63;3.13;;;;;;;37.71;56.98;99968.81;5105508;28;20214;-76
2022/08/04 06:37:26;;;;;;;3.65;3.38;;;;;;;37.77;56.98;99961.78;5103041;27;20213;-78
2022/08/04 06:39:53;;;;;;;2.83;2.63;;;;;;;37.85;56.38;99964.31;5114112;27;20457;-77
2022/08/04 06:42:25;;;;;;;3.08;2.88;;;;;;;37.82;56.19;99964.72;5126811;27;20198;-77
2022/08/04 06:44:55;;;;;;;4.63;3.03;;;;;;;37.82;56.67;99964.72;5111440;27;20603;-77
2022/08/04 06:47:21;;;;;;;4.25;3.40;;;;;;;37.91;56.54;99965.41;5101512;27;20184;-78
2022/08/04 06:49:49;;;;;;;4.22;3.20;;;;;;;38.08;56.08;99965.88;5105951;27;20192;-77
2022/08/04 06:52:16;;;;;;;2.90;2.67;;;;;;;38.09;56.28;99970.25;5122076;27;20199;-77
2022/08/04 06:54:47;;;;;;;3.45;3.25;;;;;;;38.09;55.76;99968.38;5092203;27;20185;-78
2022/08/04 06:57:15;;;;;;;4.53;3.05;;;;;;;38.10;55.55;99969.19;5113491;27;20171;-76
2022/08/04 06:59:43;;;;;;;4.38;3.78;;;;;;;38.12;55.23;99969.84;5107285;28;20195;-77
2022/08/04 07:02:14;;;;;;;3.50;3.30;;;;;;;38.17;55.82;99967.38;5109266;28;20268;-79
2022/08/04 07:04:41;;;;;;;3.90;3.50;;;;;;;38.31;55.89;99967.41;5096345;27;20196;-76
2022/08/04 07:07:07;;;;;;;4.03;3.28;;;;;;;38.38;55.26;99963.69;5108512;27;20240;-78
2022/08/04 07:09:33;;;;;;;4.97;3.55;;;;;;;38.51;55.11;99965.56;5110471;27;20263;-80
2022/08/04 07:12:00;;;;;;;3.80;3.28;;;;;;;38.45;55.24;99968.28;5101446;28;20205;-79
2022/08/04 07:14:26;;;;;;;3.20;2.90;;;;;;;38.38;55.01;99968.25;5106038;28;20199;-79
2022/08/04 07:16:53;;;;;;;3.63;3.33;;;;;;;38.34;54.88;99969.69;5109361;28;20191;-77
2022/08/04 07:19:18;;;;;;;3.38;3.08;;;;;;;38.20;55.24;99966.94;5112187;27;20199;-79
2022/08/04 07:21:44;;;;;;;3.65;3.20;;;;;;;38.24;55.69;99960.09;5117434;27;20211;-79
2022/08/04 07:24:10;;;;;;;3.58;2.90;;;;;;;38.22;55.73;99956.75;5116270;27;20245;-76
2022/08/04 07:26:35;;;;;;;3.58;3.28;;;;;;;38.15;54.82;99960.47;5106485;28;20195;-78
2022/08/04 07:29:01;;;;;;;3.17;2.97;;;;;;;38.12;55.03;99964.44;5101033;28;20266;-77
2022/08/04 07:31:27;;;;;;;3.00;2.72;;;;;;;38.08;55.44;99964.00;5112052;27;20240;-76
2022/08/04 07:33:54;;;;;;;3.20;3.00;;;;;;;38.07;55.53;99965.06;5099315;28;20203;-77
2022/08/04 07:36:19;;;;;;;3.95;2.90;;;;;;;38.01;55.56;99963.16;5111917;27;20213;-78
2022/08/04 07:38:45;;;;;;;3.08;2.88;;;;;;;37.85;55.91;99963.47;5102752;27;20268;-77
2022/08/04 07:41:11;;;;;;;3.90;2.83;;;;;;;37.65;56.13;99964.22;5119216;27;20207;-77
2022/08/04 07:43:37;;;;;;;3.13;2.80;;;;;;;37.51;55.83;99963.31;5099323;28;20303;-79
2022/08/04 07:46:03;;;;;;;2.90;2.70;;;;;;;37.44;55.74;99974.06;5104543;28;20631;-79
2022/08/04 07:48:29;;;;;;;4.28;4.05;;;;;;;37.28;55.47;99961.72;5111090;28;20664;-77
2022/08/04 07:50:54;;;;;;;3.38;3.17;;;;;;;37.18;56.14;99966.59;5106093;28;20282;-77
2022/08/04 07:53:21;;;;;;;3.45;3.10;;;;;;;37.10;55.72;99967.59;5117537;27;20532;-77
2022/08/04 07:55:47;;;;;;;2.97;2.78;;;;;;;36.92;56.15;99963.50;5097370;27;20197;-77
2022/08/04 07:58:12;;;;;;;3.35;3.05;;;;;;;36.74;56.60;99963.97;5089300;28;20188;-77
2022/08/04 08:00:38;;;;;;;3.25;2.95;;;;;;;36.59;56.58;99966.75;5106761;28;20214;-76
2022/08/04 08:03:05;;;;;;;3.72;2.75;;;;;;;36.43;56.92;99966.97;5105480;28;20180;-77
2022/08/04 08:05:31;;;;;;;3.10;2.78;;;;;;;36.23;57.29;99964.88;5102515;28;20564;-77
2022/08/04 08:07:58;;;;;;;3.20;2.92;;;;;;;36.10;57.45;99968.25;5106793;27;20189;-76
2022/08/04 08:10:24;;;;;;;3.55;2.90;;;;;;;35.92;57.79;99963.25;5109756;27;20256;-79
2022/08/04 08:12:50;;;;;;;3.75;2.75;;;;;;;35.76;57.96;99964.31;5098254;28;20201;-79
2022/08/04 08:15:18;;;;;;;2.95;2.75;;;;;;;35.56;58.64;99964.00;5098997;27;20188;-79
2022/08/04 08:17:43;;;;;;;4.70;3.00;;;;;;;35.37;58.76;99965.38;5105746;28;20276;-76
2022/08/04 08:20:09;;;;;;;2.88;2.67;;;;;;;35.18;58.73;99967.56;5104917;27;20204;-79
2022/08/04 08:22:36;;;;;;;2.97;2.70;;;;;;;35.02;59.19;99960.50;5128746;27;20210;-78
2022/08/04 08:25:03;;;;;;;2.78;2.58;;;;;;;34.83;58.86;99953.75;5113073;28;20172;-79
2022/08/04 08:27:30;;;;;;;2.70;2.50;;;;;;;34.72;59.06;99962.22;5108746;28;20187;-76
2022/08/04 08:29:55;;;;;;;3.58;3.00;;;;;;;34.58;59.19;99961.19;5106691;28;20648;-78
2022/08/04 08:32:21;;;;;;;3.03;2.83;;;;;;;34.44;59.15;99963.63;5109744;27;20245;-79
2022/08/04 08:34:46;;;;;;;2.72;2.53;;;;;;;34.32;59.12;99959.66;5100874;27;20271;-79
2022/08/04 08:37:28;;;;;;;3.10;2.88;;;;;;;34.16;59.36;99971.31;5110517;28;21649;-77
2022/08/04 08:40:19;;;;;;;3.30;2.63;;;;;;;33.92;59.64;99972.25;5111532;27;20200;-76
2022/08/04 08:43:42;;;;;;;3.17;2.78;;;;;;;33.66;59.10;99963.44;5104279;27;20185;-77
2022/08/04 08:46:37;;;;;;;3.15;2.80;;;;;;;33.45;59.88;99961.31;5045972;28;20193;-77
2022/08/04 08:49:12;;;;;;;2.38;2.28;;;;;;;33.38;60.46;99963.84;5064964;28;20189;-77
2022/08/04 08:52:01;;;;;;;3.00;2.80;;;;;;;33.36;60.80;99955.13;5091042;28;20215;-76
2022/08/04 08:54:54;;;;;;;2.67;2.47;;;;;;;33.31;60.65;99960.16;5100587;27;20204;-77
2022/08/04 08:57:54;;;;;;;2.40;2.28;;;;;;;33.30;60.50;99961.16;5092937;28;20180;-77
2022/08/04 09:00:31;;;;;;;2.95;2.63;;;;;;;33.29;60.91;99956.81;5103162;27;20216;-77
2022/08/04 09:03:31;;;;;;;2.88;2.67;;;;;;;33.29;60.97;99954.94;5102897;27;20184;-78
2022/08/04 09:06:08;;;;;;;2.83;2.63;;;;;;;33.31;60.69;99951.25;5103242;27;20189;-78
2022/08/04 09:08:52;;;;;;;2.80;2.60;;;;;;;33.35;60.51;99944.56;5108909;27;20556;-78
2022/08/04 09:11:34;;;;;;;3.08;2.78;;;;;;;33.38;61.09;99944.25;5112275;27;20203;-77
2022/08/04 09:14:13;;;;;;;2.80;2.50;;;;;;;33.43;61.27;99955.28;5100479;28;20184;-76
2022/08/04 09:16:49;;;;;;;2.33;2.22;;;;;;;33.47;61.29;99948.56;5110803;27;20784;-77
2022/08/04 09:19:22;;;;;;;2.10;2.00;;;;;;;33.50;60.95;99944.72;5115795;27;20206;-78
2022/08/04 09:21:57;;;;;;;2.80;2.60;;;;;;;33.56;61.74;99949.38;5101172;28;20212;-79
2022/08/04 09:24:32;;;;;;;4.03;2.70;;;;;;;33.61;62.01;99946.19;5097565;27;20293;-78
2022/08/04 09:27:07;;;;;;;3.22;2.92;;;;;;;33.65;61.53;99948.38;5107352;27;20199;-79
2022/08/04 09:29:39;;;;;;;3.10;2.80;;;;;;;33.68;60.41;99950.69;5120543;27;20180;-77
2022/08/04 09:32:14;;;;;;;3.15;2.78;;;;;;;33.71;60.67;99944.16;5098642;28;20295;-77
2022/08/04 09:35:02;;;;;;;2.85;2.60;;;;;;;33.73;60.41;99940.28;5111020;28;20220;-76
2022/08/04 09:37:44;;;;;;;2.95;2.67;;;;;;;33.75;60.43;99945.47;5100307;28;20208;-77
2022/08/04 09:40:42;;;;;;;2.78;2.58;;;;;;;33.79;60.43;99944.09;5109691;28;20292;-76
2022/08/04 09:43:28;;;;;;;4.10;2.53;;;;;;;33.83;60.34;99939.22;5093060;28;20302;-76
2022/08/04 09:46:16;;;;;;;2.85;2.35;;;;;;;33.88;60.04;99934.19;5102079;28;20184;-79
2022/08/04 09:48:44;;;;;;;2.40;2.20;;;;;;;33.97;59.79;99940.38;5102666;28;20193;-78
2022/08/04 09:51:30;;;;;;;2.75;2.28;;;;;;;34.07;60.54;99935.63;5098327;27;20303;-78
2022/08/04 09:54:05;;;;;;;2.80;2.60;;;;;;;34.16;60.60;99933.72;5110688;28;20382;-79
2022/08/04 09:57:15;;;;;;;2.78;2.58;;;;;;;34.20;60.08;99935.03;5095009;28;20175;-80
2022/08/04 09:59:46;;;;;;;2.72;2.53;;;;;;;34.20;60.20;99933.19;5067743;28;20251;-76
2022/08/04 10:02:17;;;;;;;2.72;2.53;;;;;;;34.22;60.01;99926.78;5091556;28;20295;-76
2022/08/04 10:04:45;;;;;;;2.78;2.45;;;;;;;34.24;60.04;99920.25;5090255;28;20208;-76
2022/08/04 10:07:16;;;;;;;3.03;2.63;;;;;;;34.29;59.84;99920.53;5108427;28;20197;-76
2022/08/04 10:10:01;;;;;;;2.60;2.42;;;;;;;34.34;59.24;99922.69;5101227;28;20191;-77
2022/08/04 10:12:34;;;;;;;2.97;2.70;;;;;;;34.32;59.38;99919.38;5104961;28;20199;-80
2022/08/04 10:15:19;;;;;;;2.40;2.30;;;;;;;34.34;59.06;99914.63;5108285;28;20176;-79
2022/08/04 10:18:04;;;;;;;2.78;2.58;;;;;;;34.35;59.22;99914.47;5095298;28;20292;-77
2022/08/04 10:20:44;;;;;;;3.17;2.95;;;;;;;34.43;58.68;99915.44;5103625;28;20231;-77
2022/08/04 10:23:31;;;;;;;2.88;2.67;;;;;;;34.48;58.19;99910.38;5114651;27;20180;-76
2022/08/04 10:26:28;;;;;;;2.72;2.47;;;;;;;34.47;57.96;99909.56;5110933;27;20556;-78
2022/08/04 10:29:35;;;;;;;2.75;2.55;;;;;;;34.54;57.67;99898.06;5102898;28;20571;-78
2022/08/04 10:32:25;;;;;;;3.38;2.50;;;;;;;34.58;56.36;99892.16;5114554;28;20261;-77
2022/08/04 10:35:09;;;;;;;3.05;2.78;;;;;;;34.57;56.45;99893.16;5104276;27;20180;-76
2022/08/04 10:38:14;;;;;;;2.90;2.65;;;;;;;34.61;57.16;99889.09;5110992;27;20274;-76
2022/08/04 10:40:57;;;;;;;2.80;2.60;;;;;;;34.75;57.12;99897.38;5091982;27;20263;-76
2022/08/04 10:43:44;;;;;;;2.85;2.22;;;;;;;34.77;55.59;99887.28;5108404;27;20610;-77
2022/08/04 10:46:16;;;;;;;1.90;1.80;;;;;;;34.80;55.01;99890.44;5112555;27;20177;-78
2022/08/04 10:48:56;;;;;;;2.33;2.22;;;;;;;34.77;55.28;99884.59;5109248;27;20696;-77
2022/08/04 10:51:37;;;;;;;2.85;2.30;;;;;;;34.87;56.10;99884.34;5106500;27;20218;-78
2022/08/04 10:54:07;;;;;;;2.30;2.10;;;;;;;34.98;55.59;99883.09;5110737;27;20272;-76
2022/08/04 10:56:42;;;;;;;1.88;1.77;;;;;;;35.02;54.57;99879.84;5105622;28;20219;-77
2022/08/04 11:00:08;;;;;;;2.20;2.10;;;;;;;35.08;54.90;99881.81;5124616;27;20181;-79
2022/08/04 11:02:39;;;;;;;2.78;2.58;;;;;;;35.11;54.74;99885.97;5017429;28;20589;-80
2022/08/04 11:05:20;;;;;;;1.88;1.73;;;;;;;35.16;53.81;99885.41;5025792;28;20184;-76
2022/08/04 11:07:50;;;;;;;2.17;2.08;;;;;;;35.19;53.67;99877.81;5077190;27;20199;-76
2022/08/04 11:10:21;;;;;;;2.47;2.28;;;;;;;35.21;53.63;99880.31;5095828;27;20599;-79
2022/08/04 11:12:51;;;;;;;2.20;2.10;;;;;;;35.30;54.24;99881.88;5104712;28;20622;-79
2022/08/04 11:15:33;;;;;;;2.42;2.22;;;;;;;35.40;54.55;99882.44;5120463;27;20184;-80
2022/08/04 11:18:05;;;;;;;1.75;1.65;;;;;;;35.44;54.90;99879.41;5129909;27;20343;-77
2022/08/04 11:20:55;;;;;;;2.40;2.20;;;;;;;35.46;53.77;99875.53;5106979;27;20293;-77
2022/08/04 11:23:28;;;;;;;2.38;2.17;;;;;;;35.47;53.87;99879.03;5102598;28;20256;-77
2022/08/04 11:26:05;;;;;;;2.05;1.95;;;;;;;35.54;53.73;99883.47;5102324;28;20188;-79
2022/08/04 11:29:07;;;;;;;2.55;1.98;;;;;;;35.55;53.99;99876.22;5108730;28;20199;-78
2022/08/04 11:31:40;;;;;;;2.28;2.17;;;;;;;35.60;54.22;99884.59;5105259;27;20582;-78
2022/08/04 11:34:23;;;;;;;1.90;1.80;;;;;;;35.68;53.23;99884.50;5111936;27;20175;-77
2022/08/04 11:37:00;;;;;;;1.92;1.83;;;;;;;35.65;52.50;99879.47;5106589;27;20189;-78
2022/08/04 11:39:54;;;;;;;2.10;2.00;;;;;;;35.71;52.73;99883.28;5096542;28;20612;-77
2022/08/04 11:42:40;;;;;;;2.58;1.83;;;;;;;35.78;53.24;99872.59;5102003;28;20196;-78
2022/08/04 11:45:18;;;;;;;2.05;1.95;;;;;;;35.88;51.33;99883.06;5110671;27;20172;-78
2022/08/04 11:47:50;;;;;;;2.15;2.05;;;;;;;35.86;52.02;99873.31;5109746;28;20180;-78
2022/08/04 11:50:37;;;;;;;1.90;1.80;;;;;;;35.86;51.83;99870.59;5116693;27;20207;-78
2022/08/04 11:53:03;;;;;;;2.03;1.92;;;;;;;35.84;51.70;99872.66;5127852;27;20223;-79
2022/08/04 11:55:31;;;;;;;1.95;1.85;;;;;;;35.86;51.95;99867.06;5096368;27;20176;-76
2022/08/04 11:57:57;;;;;;;2.85;1.90;;;;;;;35.90;50.72;99870.25;5107211;27;20181;-76
2022/08/04 12:00:26;;;;;;;2.10;2.00;;;;;;;35.89;50.95;99869.38;5091034;28;21007;-76
2022/08/04 12:03:24;;;;;;;2.53;2.10;;;;;;;35.79;50.77;99864.31;5114191;27;20176;-80
2022/08/04 12:06:02;;;;;;;1.88;1.77;;;;;;;35.78;51.17;99868.03;5106818;28;20192;-77
2022/08/04 12:08:53;;;;;;;1.60;1.50;;;;;;;35.83;50.85;99862.91;5106887;28;20177;-77
2022/08/04 12:11:36;;;;;;;1.58;1.48;;;;;;;35.83;50.53;99865.59;5105167;27;20195;-78
2022/08/04 12:14:32;;;;;;;2.33;1.70;;;;;;;35.84;50.85;99850.31;5102927;28;20212;-78
2022/08/04 12:17:03;;;;;;;4.55;1.98;;;;;;;35.92;50.27;99849.34;5108818;27;20184;-77
2022/08/04 12:19:29;;;;;;;2.17;2.00;;;;;;;36.03;50.21;99848.88;5098020;27;20788;-77
2022/08/04 12:21:59;;;;;;;2.42;1.90;;;;;;;36.05;50.41;99849.50;5102090;27;20193;-76